sensor_id;sensor_type;location;lat;lon;timestamp;P1;durP1;ratioP1;P2;durP2;ratioP2
4198;SDS011;2113;50.946;14.610;2023-03-01T00:01:19;27.80;;;15.98;;
4198;SDS011;2113;50.946;14.610;2023-03-01T00:03:50;28.63;;;14.70;;
4198;SDS011;2113;50.946;14.610;2023-03-01T00:06:19;31.58;;;15.93;;
4198;SDS011;2113;50.946;14.610;2023-03-01T00:08:48;39.63;;;18.38;;
4198;SDS011;2113;50.946;14.610;2023-03-01T00:11:18;33.47;;;16.92;;
4198;SDS011;2113;50.946;14.610;2023-03-01T00:13:48;35.40;;;15.27;;
4198;SDS011;2113;50.946;14.610;2023-03-01T00:16:20;34.53;;;14.68;;
4198;SDS011;2113;50.946;14.610;2023-03-01T00:18:51;39.30;;;18.33;;
4198;SDS011;2113;50.946;14.610;2023-03-01T00:21:20;25.77;;;13.07;;
4198;SDS011;2113;50.946;14.610;2023-03-01T00:23:49;32.13;;;15.77;;
4198;SDS011;2113;50.946;14.610;2023-03-01T00:26:18;37.05;;;15.13;;
4198;SDS011;2113;50.946;14.610;2023-03-01T00:28:47;32.53;;;15.27;;
4198;SDS011;2113;50.946;14.610;2023-03-01T00:31:16;37.53;;;17.02;;
4198;SDS011;2113;50.946;14.610;2023-03-01T00:33:47;38.65;;;16.17;;
4198;SDS011;2113;50.946;14.610;2023-03-01T00:36:16;39.78;;;17.95;;
4198;SDS011;2113;50.946;14.610;2023-03-01T00:38:44;34.42;;;15.05;;
4198;SDS011;2113;50.946;14.610;2023-03-01T00:41:14;33.53;;;14.48;;
4198;SDS011;2113;50.946;14.610;2023-03-01T00:43:44;35.83;;;15.65;;
4198;SDS011;2113;50.946;14.610;2023-03-01T00:46:13;25.05;;;14.13;;
4198;SDS011;2113;50.946;14.610;2023-03-01T00:48:43;25.90;;;13.90;;
4198;SDS011;2113;50.946;14.610;2023-03-01T00:51:14;34.97;;;14.18;;
4198;SDS011;2113;50.946;14.610;2023-03-01T00:53:44;33.92;;;14.65;;
4198;SDS011;2113;50.946;14.610;2023-03-01T00:56:14;28.92;;;14.10;;
4198;SDS011;2113;50.946;14.610;2023-03-01T00:58:43;36.25;;;15.00;;
4198;SDS011;2113;50.946;14.610;2023-03-01T01:01:13;31.38;;;14.10;;
4198;SDS011;2113;50.946;14.610;2023-03-01T01:03:45;35.50;;;15.75;;
4198;SDS011;2113;50.946;14.610;2023-03-01T01:06:17;40.42;;;17.38;;
4198;SDS011;2113;50.946;14.610;2023-03-01T01:08:48;26.67;;;14.27;;
4198;SDS011;2113;50.946;14.610;2023-03-01T01:11:17;30.33;;;14.63;;
4198;SDS011;2113;50.946;14.610;2023-03-01T01:13:46;37.03;;;17.42;;
4198;SDS011;2113;50.946;14.610;2023-03-01T01:16:16;31.15;;;15.20;;
4198;SDS011;2113;50.946;14.610;2023-03-01T01:18:46;38.78;;;17.10;;
4198;SDS011;2113;50.946;14.610;2023-03-01T01:21:15;32.63;;;17.50;;
4198;SDS011;2113;50.946;14.610;2023-03-01T01:23:46;44.17;;;17.00;;
4198;SDS011;2113;50.946;14.610;2023-03-01T01:26:16;29.80;;;16.13;;
4198;SDS011;2113;50.946;14.610;2023-03-01T01:28:46;39.70;;;17.80;;
4198;SDS011;2113;50.946;14.610;2023-03-01T01:31:15;35.28;;;16.33;;
4198;SDS011;2113;50.946;14.610;2023-03-01T01:33:44;38.25;;;16.73;;
4198;SDS011;2113;50.946;14.610;2023-03-01T01:36:13;36.75;;;16.77;;
4198;SDS011;2113;50.946;14.610;2023-03-01T01:38:42;41.78;;;16.08;;
4198;SDS011;2113;50.946;14.610;2023-03-01T01:41:11;34.85;;;16.98;;
4198;SDS011;2113;50.946;14.610;2023-03-01T01:43:41;35.55;;;18.98;;
4198;SDS011;2113;50.946;14.610;2023-03-01T01:46:15;35.97;;;17.25;;
4198;SDS011;2113;50.946;14.610;2023-03-01T01:48:51;42.45;;;17.52;;
4198;SDS011;2113;50.946;14.610;2023-03-01T01:51:24;33.60;;;15.75;;
4198;SDS011;2113;50.946;14.610;2023-03-01T01:53:58;35.05;;;16.90;;
4198;SDS011;2113;50.946;14.610;2023-03-01T01:56:28;29.38;;;15.60;;
4198;SDS011;2113;50.946;14.610;2023-03-01T01:58:57;39.03;;;17.45;;
4198;SDS011;2113;50.946;14.610;2023-03-01T02:01:26;34.65;;;16.15;;
4198;SDS011;2113;50.946;14.610;2023-03-01T02:03:55;38.33;;;16.10;;
4198;SDS011;2113;50.946;14.610;2023-03-01T02:06:26;38.67;;;16.13;;
4198;SDS011;2113;50.946;14.610;2023-03-01T02:09:00;35.55;;;16.92;;
4198;SDS011;2113;50.946;14.610;2023-03-01T02:11:33;35.65;;;16.10;;
4198;SDS011;2113;50.946;14.610;2023-03-01T02:14:04;35.45;;;16.02;;
4198;SDS011;2113;50.946;14.610;2023-03-01T02:16:33;26.55;;;14.93;;
4198;SDS011;2113;50.946;14.610;2023-03-01T02:19:01;30.60;;;15.15;;
4198;SDS011;2113;50.946;14.610;2023-03-01T02:21:36;44.17;;;17.55;;
4198;SDS011;2113;50.946;14.610;2023-03-01T02:24:13;29.80;;;14.10;;
4198;SDS011;2113;50.946;14.610;2023-03-01T02:26:53;32.03;;;15.27;;
4198;SDS011;2113;50.946;14.610;2023-03-01T02:29:24;36.13;;;17.38;;
4198;SDS011;2113;50.946;14.610;2023-03-01T02:31:55;36.88;;;14.55;;
4198;SDS011;2113;50.946;14.610;2023-03-01T02:34:25;38.33;;;16.77;;
4198;SDS011;2113;50.946;14.610;2023-03-01T02:36:56;33.45;;;15.93;;
4198;SDS011;2113;50.946;14.610;2023-03-01T02:39:28;32.85;;;15.55;;
4198;SDS011;2113;50.946;14.610;2023-03-01T02:42:01;40.28;;;16.35;;
4198;SDS011;2113;50.946;14.610;2023-03-01T02:44:33;37.03;;;18.08;;
4198;SDS011;2113;50.946;14.610;2023-03-01T02:47:02;37.60;;;15.43;;
4198;SDS011;2113;50.946;14.610;2023-03-01T02:49:33;29.70;;;14.25;;
4198;SDS011;2113;50.946;14.610;2023-03-01T02:52:09;29.23;;;13.60;;
4198;SDS011;2113;50.946;14.610;2023-03-01T02:54:58;38.15;;;15.07;;
4198;SDS011;2113;50.946;14.610;2023-03-01T02:57:31;29.45;;;14.25;;
4198;SDS011;2113;50.946;14.610;2023-03-01T03:00:05;34.08;;;16.70;;
4198;SDS011;2113;50.946;14.610;2023-03-01T03:02:36;33.47;;;15.70;;
4198;SDS011;2113;50.946;14.610;2023-03-01T03:05:10;37.45;;;15.90;;
4198;SDS011;2113;50.946;14.610;2023-03-01T03:07:41;33.10;;;14.40;;
4198;SDS011;2113;50.946;14.610;2023-03-01T03:10:12;34.70;;;14.65;;
4198;SDS011;2113;50.946;14.610;2023-03-01T03:12:41;37.28;;;15.93;;
4198;SDS011;2113;50.946;14.610;2023-03-01T03:15:12;38.00;;;17.65;;
4198;SDS011;2113;50.946;14.610;2023-03-01T03:17:41;34.53;;;17.35;;
4198;SDS011;2113;50.946;14.610;2023-03-01T03:20:13;41.55;;;17.15;;
4198;SDS011;2113;50.946;14.610;2023-03-01T03:22:46;44.60;;;16.45;;
4198;SDS011;2113;50.946;14.610;2023-03-01T03:25:15;29.38;;;14.60;;
4198;SDS011;2113;50.946;14.610;2023-03-01T03:27:45;38.88;;;15.05;;
4198;SDS011;2113;50.946;14.610;2023-03-01T03:30:17;30.95;;;15.80;;
4198;SDS011;2113;50.946;14.610;2023-03-01T03:32:48;47.90;;;18.55;;
4198;SDS011;2113;50.946;14.610;2023-03-01T03:35:20;33.42;;;15.57;;
4198;SDS011;2113;50.946;14.610;2023-03-01T03:37:51;36.95;;;18.05;;
4198;SDS011;2113;50.946;14.610;2023-03-01T03:40:33;42.85;;;16.90;;
4198;SDS011;2113;50.946;14.610;2023-03-01T03:43:03;37.05;;;15.75;;
4198;SDS011;2113;50.946;14.610;2023-03-01T03:45:33;39.47;;;16.33;;
4198;SDS011;2113;50.946;14.610;2023-03-01T03:48:04;35.15;;;15.98;;
4198;SDS011;2113;50.946;14.610;2023-03-01T03:50:33;30.95;;;16.30;;
4198;SDS011;2113;50.946;14.610;2023-03-01T03:53:03;38.85;;;18.23;;
4198;SDS011;2113;50.946;14.610;2023-03-01T03:55:33;37.90;;;17.73;;
4198;SDS011;2113;50.946;14.610;2023-03-01T03:58:02;42.83;;;17.17;;
4198;SDS011;2113;50.946;14.610;2023-03-01T04:00:35;29.90;;;14.02;;
4198;SDS011;2113;50.946;14.610;2023-03-01T04:03:05;34.55;;;15.43;;
4198;SDS011;2113;50.946;14.610;2023-03-01T04:05:34;38.75;;;16.95;;
4198;SDS011;2113;50.946;14.610;2023-03-01T04:08:04;32.40;;;16.48;;
4198;SDS011;2113;50.946;14.610;2023-03-01T04:10:34;48.53;;;19.90;;
4198;SDS011;2113;50.946;14.610;2023-03-01T04:13:04;38.28;;;18.42;;
4198;SDS011;2113;50.946;14.610;2023-03-01T04:15:35;39.97;;;17.50;;
4198;SDS011;2113;50.946;14.610;2023-03-01T04:18:03;36.90;;;17.40;;
4198;SDS011;2113;50.946;14.610;2023-03-01T04:20:33;44.15;;;17.45;;
4198;SDS011;2113;50.946;14.610;2023-03-01T04:23:03;33.55;;;15.70;;
4198;SDS011;2113;50.946;14.610;2023-03-01T04:25:40;39.60;;;17.23;;
4198;SDS011;2113;50.946;14.610;2023-03-01T04:28:09;29.67;;;14.05;;
4198;SDS011;2113;50.946;14.610;2023-03-01T04:30:39;35.42;;;16.17;;
4198;SDS011;2113;50.946;14.610;2023-03-01T04:33:08;35.42;;;16.63;;
4198;SDS011;2113;50.946;14.610;2023-03-01T04:35:37;50.13;;;19.23;;
4198;SDS011;2113;50.946;14.610;2023-03-01T04:38:07;37.10;;;16.52;;
4198;SDS011;2113;50.946;14.610;2023-03-01T04:40:36;31.50;;;15.60;;
4198;SDS011;2113;50.946;14.610;2023-03-01T04:43:05;41.45;;;18.77;;
4198;SDS011;2113;50.946;14.610;2023-03-01T04:45:33;38.85;;;17.20;;
4198;SDS011;2113;50.946;14.610;2023-03-01T04:48:03;38.63;;;17.85;;
4198;SDS011;2113;50.946;14.610;2023-03-01T04:50:32;90.80;;;33.65;;
4198;SDS011;2113;50.946;14.610;2023-03-01T04:53:01;90.15;;;37.13;;
4198;SDS011;2113;50.946;14.610;2023-03-01T04:55:29;88.00;;;33.20;;
4198;SDS011;2113;50.946;14.610;2023-03-01T04:57:58;46.05;;;20.58;;
4198;SDS011;2113;50.946;14.610;2023-03-01T05:00:26;39.25;;;18.15;;
4198;SDS011;2113;50.946;14.610;2023-03-01T05:02:55;40.92;;;18.10;;
4198;SDS011;2113;50.946;14.610;2023-03-01T05:05:27;44.55;;;17.30;;
4198;SDS011;2113;50.946;14.610;2023-03-01T05:07:59;37.08;;;16.55;;
4198;SDS011;2113;50.946;14.610;2023-03-01T05:10:29;49.47;;;20.25;;
4198;SDS011;2113;50.946;14.610;2023-03-01T05:12:58;39.85;;;19.08;;
4198;SDS011;2113;50.946;14.610;2023-03-01T05:15:27;58.47;;;19.50;;
4198;SDS011;2113;50.946;14.610;2023-03-01T05:17:57;36.20;;;16.52;;
4198;SDS011;2113;50.946;14.610;2023-03-01T05:20:29;42.83;;;18.17;;
4198;SDS011;2113;50.946;14.610;2023-03-01T05:22:58;42.63;;;19.88;;
4198;SDS011;2113;50.946;14.610;2023-03-01T05:25:33;48.00;;;18.73;;
4198;SDS011;2113;50.946;14.610;2023-03-01T05:28:07;40.70;;;18.65;;
4198;SDS011;2113;50.946;14.610;2023-03-01T05:30:38;39.35;;;18.05;;
4198;SDS011;2113;50.946;14.610;2023-03-01T05:33:07;42.13;;;19.70;;
4198;SDS011;2113;50.946;14.610;2023-03-01T05:35:42;42.92;;;19.23;;
4198;SDS011;2113;50.946;14.610;2023-03-01T05:38:12;41.90;;;19.17;;
4198;SDS011;2113;50.946;14.610;2023-03-01T05:40:40;41.70;;;18.52;;
4198;SDS011;2113;50.946;14.610;2023-03-01T05:43:10;40.47;;;20.25;;
4198;SDS011;2113;50.946;14.610;2023-03-01T05:45:40;43.65;;;18.20;;
4198;SDS011;2113;50.946;14.610;2023-03-01T05:48:10;41.00;;;18.17;;
4198;SDS011;2113;50.946;14.610;2023-03-01T05:50:40;41.42;;;19.20;;
4198;SDS011;2113;50.946;14.610;2023-03-01T05:53:12;44.00;;;19.13;;
4198;SDS011;2113;50.946;14.610;2023-03-01T05:55:42;39.13;;;16.50;;
4198;SDS011;2113;50.946;14.610;2023-03-01T05:58:13;49.67;;;18.90;;
4198;SDS011;2113;50.946;14.610;2023-03-01T06:00:43;53.65;;;18.40;;
4198;SDS011;2113;50.946;14.610;2023-03-01T06:03:12;44.80;;;18.83;;
4198;SDS011;2113;50.946;14.610;2023-03-01T06:05:43;37.70;;;17.52;;
4198;SDS011;2113;50.946;14.610;2023-03-01T06:08:12;35.22;;;17.85;;
4198;SDS011;2113;50.946;14.610;2023-03-01T06:10:41;42.38;;;19.77;;
4198;SDS011;2113;50.946;14.610;2023-03-01T06:13:09;48.80;;;18.60;;
4198;SDS011;2113;50.946;14.610;2023-03-01T06:15:37;47.75;;;19.13;;
4198;SDS011;2113;50.946;14.610;2023-03-01T06:18:06;38.22;;;17.20;;
4198;SDS011;2113;50.946;14.610;2023-03-01T06:20:34;40.50;;;17.55;;
4198;SDS011;2113;50.946;14.610;2023-03-01T06:23:04;34.35;;;19.52;;
4198;SDS011;2113;50.946;14.610;2023-03-01T06:25:34;51.20;;;18.73;;
4198;SDS011;2113;50.946;14.610;2023-03-01T06:28:02;44.17;;;18.67;;
4198;SDS011;2113;50.946;14.610;2023-03-01T06:30:31;45.67;;;18.27;;
4198;SDS011;2113;50.946;14.610;2023-03-01T06:32:59;39.38;;;19.17;;
4198;SDS011;2113;50.946;14.610;2023-03-01T06:35:28;46.83;;;17.55;;
4198;SDS011;2113;50.946;14.610;2023-03-01T06:37:58;45.28;;;21.25;;
4198;SDS011;2113;50.946;14.610;2023-03-01T06:40:28;40.03;;;17.55;;
4198;SDS011;2113;50.946;14.610;2023-03-01T06:42:59;41.67;;;18.15;;
4198;SDS011;2113;50.946;14.610;2023-03-01T06:45:27;40.65;;;17.70;;
4198;SDS011;2113;50.946;14.610;2023-03-01T06:48:02;41.20;;;19.80;;
4198;SDS011;2113;50.946;14.610;2023-03-01T06:50:31;49.00;;;20.45;;
4198;SDS011;2113;50.946;14.610;2023-03-01T06:53:00;43.88;;;19.90;;
4198;SDS011;2113;50.946;14.610;2023-03-01T06:55:30;43.92;;;20.70;;
4198;SDS011;2113;50.946;14.610;2023-03-01T06:57:59;44.72;;;22.33;;
4198;SDS011;2113;50.946;14.610;2023-03-01T07:00:28;46.40;;;21.23;;
4198;SDS011;2113;50.946;14.610;2023-03-01T07:02:58;52.08;;;22.67;;
4198;SDS011;2113;50.946;14.610;2023-03-01T07:05:27;52.28;;;23.08;;
4198;SDS011;2113;50.946;14.610;2023-03-01T07:07:56;52.25;;;25.05;;
4198;SDS011;2113;50.946;14.610;2023-03-01T07:10:24;65.20;;;27.83;;
4198;SDS011;2113;50.946;14.610;2023-03-01T07:12:55;63.28;;;28.85;;
4198;SDS011;2113;50.946;14.610;2023-03-01T07:15:24;63.90;;;28.40;;
4198;SDS011;2113;50.946;14.610;2023-03-01T07:17:53;61.35;;;26.67;;
4198;SDS011;2113;50.946;14.610;2023-03-01T07:20:22;63.08;;;30.00;;
4198;SDS011;2113;50.946;14.610;2023-03-01T07:22:52;65.38;;;29.23;;
4198;SDS011;2113;50.946;14.610;2023-03-01T07:25:21;55.60;;;28.13;;
4198;SDS011;2113;50.946;14.610;2023-03-01T07:27:49;79.72;;;33.22;;
4198;SDS011;2113;50.946;14.610;2023-03-01T07:30:21;83.35;;;35.28;;
4198;SDS011;2113;50.946;14.610;2023-03-01T07:32:52;90.00;;;42.70;;
4198;SDS011;2113;50.946;14.610;2023-03-01T07:35:21;73.47;;;39.72;;
4198;SDS011;2113;50.946;14.610;2023-03-01T07:37:50;61.20;;;34.22;;
4198;SDS011;2113;50.946;14.610;2023-03-01T07:40:19;55.30;;;33.65;;
4198;SDS011;2113;50.946;14.610;2023-03-01T07:42:47;51.88;;;31.23;;
4198;SDS011;2113;50.946;14.610;2023-03-01T07:45:15;48.15;;;28.25;;
4198;SDS011;2113;50.946;14.610;2023-03-01T07:47:45;51.65;;;30.08;;
4198;SDS011;2113;50.946;14.610;2023-03-01T07:50:13;44.17;;;30.45;;
4198;SDS011;2113;50.946;14.610;2023-03-01T07:52:44;51.67;;;34.08;;
4198;SDS011;2113;50.946;14.610;2023-03-01T07:55:13;50.03;;;30.88;;
4198;SDS011;2113;50.946;14.610;2023-03-01T07:57:42;51.92;;;32.25;;
4198;SDS011;2113;50.946;14.610;2023-03-01T08:00:11;50.45;;;31.90;;
4198;SDS011;2113;50.946;14.610;2023-03-01T08:02:40;48.20;;;32.13;;
4198;SDS011;2113;50.946;14.610;2023-03-01T08:05:10;48.33;;;33.47;;
4198;SDS011;2113;50.946;14.610;2023-03-01T08:07:38;48.53;;;34.20;;
4198;SDS011;2113;50.946;14.610;2023-03-01T08:10:07;48.38;;;31.80;;
4198;SDS011;2113;50.946;14.610;2023-03-01T08:12:36;45.22;;;31.27;;
4198;SDS011;2113;50.946;14.610;2023-03-01T08:15:05;56.67;;;36.92;;
4198;SDS011;2113;50.946;14.610;2023-03-01T08:17:35;53.03;;;37.72;;
4198;SDS011;2113;50.946;14.610;2023-03-01T08:20:03;48.83;;;36.05;;
4198;SDS011;2113;50.946;14.610;2023-03-01T08:22:35;49.28;;;34.22;;
4198;SDS011;2113;50.946;14.610;2023-03-01T08:25:03;45.80;;;32.15;;
4198;SDS011;2113;50.946;14.610;2023-03-01T08:27:32;45.90;;;31.27;;
4198;SDS011;2113;50.946;14.610;2023-03-01T08:30:00;44.22;;;32.08;;
4198;SDS011;2113;50.946;14.610;2023-03-01T08:32:29;45.65;;;30.80;;
4198;SDS011;2113;50.946;14.610;2023-03-01T08:34:57;46.00;;;31.65;;
4198;SDS011;2113;50.946;14.610;2023-03-01T08:37:26;52.05;;;34.47;;
4198;SDS011;2113;50.946;14.610;2023-03-01T08:39:59;50.47;;;35.55;;
4198;SDS011;2113;50.946;14.610;2023-03-01T08:42:27;52.03;;;35.03;;
4198;SDS011;2113;50.946;14.610;2023-03-01T08:44:56;48.83;;;34.13;;
4198;SDS011;2113;50.946;14.610;2023-03-01T08:47:24;50.63;;;36.05;;
4198;SDS011;2113;50.946;14.610;2023-03-01T08:49:52;54.70;;;35.45;;
4198;SDS011;2113;50.946;14.610;2023-03-01T08:52:21;49.92;;;34.47;;
4198;SDS011;2113;50.946;14.610;2023-03-01T08:54:51;53.35;;;35.47;;
4198;SDS011;2113;50.946;14.610;2023-03-01T08:57:20;44.55;;;29.80;;
4198;SDS011;2113;50.946;14.610;2023-03-01T08:59:48;43.92;;;27.38;;
4198;SDS011;2113;50.946;14.610;2023-03-01T09:02:17;41.38;;;25.00;;
4198;SDS011;2113;50.946;14.610;2023-03-01T09:04:46;45.05;;;26.73;;
4198;SDS011;2113;50.946;14.610;2023-03-01T09:07:14;42.58;;;22.98;;
4198;SDS011;2113;50.946;14.610;2023-03-01T09:09:43;45.35;;;28.40;;
4198;SDS011;2113;50.946;14.610;2023-03-01T09:12:11;42.45;;;25.35;;
4198;SDS011;2113;50.946;14.610;2023-03-01T09:14:41;43.80;;;23.90;;
4198;SDS011;2113;50.946;14.610;2023-03-01T09:17:09;34.47;;;23.15;;
4198;SDS011;2113;50.946;14.610;2023-03-01T09:19:38;41.15;;;24.65;;
4198;SDS011;2113;50.946;14.610;2023-03-01T09:22:06;37.45;;;23.60;;
4198;SDS011;2113;50.946;14.610;2023-03-01T09:24:34;39.97;;;23.88;;
4198;SDS011;2113;50.946;14.610;2023-03-01T09:27:03;35.80;;;21.98;;
4198;SDS011;2113;50.946;14.610;2023-03-01T09:29:35;36.67;;;22.65;;
4198;SDS011;2113;50.946;14.610;2023-03-01T09:32:05;34.30;;;20.45;;
4198;SDS011;2113;50.946;14.610;2023-03-01T09:34:35;37.08;;;20.05;;
4198;SDS011;2113;50.946;14.610;2023-03-01T09:37:23;35.35;;;20.33;;
4198;SDS011;2113;50.946;14.610;2023-03-01T09:39:52;30.42;;;19.80;;
4198;SDS011;2113;50.946;14.610;2023-03-01T09:42:20;34.25;;;22.52;;
4198;SDS011;2113;50.946;14.610;2023-03-01T09:44:51;33.67;;;23.15;;
4198;SDS011;2113;50.946;14.610;2023-03-01T09:47:26;34.60;;;23.13;;
4198;SDS011;2113;50.946;14.610;2023-03-01T09:49:58;42.28;;;27.08;;
4198;SDS011;2113;50.946;14.610;2023-03-01T09:52:34;40.25;;;25.27;;
4198;SDS011;2113;50.946;14.610;2023-03-01T09:55:08;44.13;;;24.83;;
4198;SDS011;2113;50.946;14.610;2023-03-01T09:57:41;29.70;;;21.50;;
4198;SDS011;2113;50.946;14.610;2023-03-01T10:00:20;32.58;;;24.15;;
4198;SDS011;2113;50.946;14.610;2023-03-01T10:02:59;34.00;;;22.58;;
4198;SDS011;2113;50.946;14.610;2023-03-01T10:05:39;32.55;;;20.38;;
4198;SDS011;2113;50.946;14.610;2023-03-01T10:08:19;39.78;;;22.85;;
4198;SDS011;2113;50.946;14.610;2023-03-01T10:10:58;32.50;;;22.23;;
4198;SDS011;2113;50.946;14.610;2023-03-01T10:13:28;32.80;;;22.13;;
4198;SDS011;2113;50.946;14.610;2023-03-01T10:16:01;34.33;;;23.10;;
4198;SDS011;2113;50.946;14.610;2023-03-01T10:18:39;41.75;;;26.42;;
4198;SDS011;2113;50.946;14.610;2023-03-01T10:21:12;39.35;;;26.05;;
4198;SDS011;2113;50.946;14.610;2023-03-01T10:23:44;36.03;;;22.75;;
4198;SDS011;2113;50.946;14.610;2023-03-01T10:26:17;38.40;;;24.63;;
4198;SDS011;2113;50.946;14.610;2023-03-01T10:29:01;37.03;;;24.23;;
4198;SDS011;2113;50.946;14.610;2023-03-01T10:31:35;38.55;;;23.05;;
4198;SDS011;2113;50.946;14.610;2023-03-01T10:34:09;36.67;;;23.45;;
4198;SDS011;2113;50.946;14.610;2023-03-01T10:36:40;38.88;;;23.23;;
4198;SDS011;2113;50.946;14.610;2023-03-01T10:39:11;39.45;;;22.35;;
4198;SDS011;2113;50.946;14.610;2023-03-01T10:41:49;33.92;;;20.90;;
4198;SDS011;2113;50.946;14.610;2023-03-01T10:47:15;37.53;;;23.05;;
4198;SDS011;2113;50.946;14.610;2023-03-01T10:50:05;32.75;;;21.65;;
4198;SDS011;2113;50.946;14.610;2023-03-01T10:52:55;34.83;;;21.65;;
4198;SDS011;2113;50.946;14.610;2023-03-01T10:55:27;31.05;;;21.08;;
4198;SDS011;2113;50.946;14.610;2023-03-01T10:58:06;34.53;;;22.83;;
4198;SDS011;2113;50.946;14.610;2023-03-01T11:00:45;36.70;;;22.60;;
4198;SDS011;2113;50.946;14.610;2023-03-01T11:03:16;31.92;;;19.90;;
4198;SDS011;2113;50.946;14.610;2023-03-01T11:05:57;31.40;;;20.90;;
4198;SDS011;2113;50.946;14.610;2023-03-01T11:08:39;32.47;;;20.20;;
4198;SDS011;2113;50.946;14.610;2023-03-01T11:11:20;31.08;;;19.00;;
4198;SDS011;2113;50.946;14.610;2023-03-01T11:13:58;32.85;;;20.90;;
4198;SDS011;2113;50.946;14.610;2023-03-01T11:16:36;32.28;;;19.42;;
4198;SDS011;2113;50.946;14.610;2023-03-01T11:19:17;28.52;;;18.92;;
4198;SDS011;2113;50.946;14.610;2023-03-01T11:21:53;36.85;;;24.08;;
4198;SDS011;2113;50.946;14.610;2023-03-01T11:24:28;34.75;;;20.30;;
4198;SDS011;2113;50.946;14.610;2023-03-01T11:27:02;33.38;;;20.50;;
4198;SDS011;2113;50.946;14.610;2023-03-01T11:29:34;31.38;;;19.10;;
4198;SDS011;2113;50.946;14.610;2023-03-01T11:32:15;33.33;;;19.55;;
4198;SDS011;2113;50.946;14.610;2023-03-01T11:34:45;34.30;;;21.55;;
4198;SDS011;2113;50.946;14.610;2023-03-01T11:37:26;34.50;;;19.92;;
4198;SDS011;2113;50.946;14.610;2023-03-01T11:40:03;27.67;;;19.60;;
4198;SDS011;2113;50.946;14.610;2023-03-01T11:42:44;29.58;;;18.90;;
4198;SDS011;2113;50.946;14.610;2023-03-01T11:45:18;29.88;;;18.40;;
4198;SDS011;2113;50.946;14.610;2023-03-01T11:48:07;33.97;;;18.35;;
4198;SDS011;2113;50.946;14.610;2023-03-01T11:50:51;33.53;;;18.95;;
4198;SDS011;2113;50.946;14.610;2023-03-01T11:53:36;34.42;;;20.08;;
4198;SDS011;2113;50.946;14.610;2023-03-01T11:56:22;27.58;;;17.75;;
4198;SDS011;2113;50.946;14.610;2023-03-01T11:59:05;38.00;;;19.45;;
4198;SDS011;2113;50.946;14.610;2023-03-01T12:02:07;34.65;;;22.08;;
4198;SDS011;2113;50.946;14.610;2023-03-01T12:04:54;38.60;;;24.27;;
4198;SDS011;2113;50.946;14.610;2023-03-01T12:07:42;33.83;;;22.35;;
4198;SDS011;2113;50.946;14.610;2023-03-01T12:10:23;36.67;;;21.95;;
4198;SDS011;2113;50.946;14.610;2023-03-01T12:12:58;32.95;;;20.02;;
4198;SDS011;2113;50.946;14.610;2023-03-01T12:25:04;32.38;;;19.13;;
4198;SDS011;2113;50.946;14.610;2023-03-01T12:27:53;33.90;;;19.27;;
4198;SDS011;2113;50.946;14.610;2023-03-01T12:30:42;29.70;;;17.02;;
4198;SDS011;2113;50.946;14.610;2023-03-01T12:33:22;35.53;;;19.45;;
4198;SDS011;2113;50.946;14.610;2023-03-01T12:36:12;28.60;;;17.30;;
4198;SDS011;2113;50.946;14.610;2023-03-01T12:39:07;31.98;;;17.63;;
4198;SDS011;2113;50.946;14.610;2023-03-01T12:41:46;32.10;;;18.67;;
4198;SDS011;2113;50.946;14.610;2023-03-01T12:47:22;24.27;;;18.50;;
4198;SDS011;2113;50.946;14.610;2023-03-01T12:50:02;33.22;;;17.25;;
4198;SDS011;2113;50.946;14.610;2023-03-01T12:52:39;33.67;;;17.45;;
4198;SDS011;2113;50.946;14.610;2023-03-01T12:55:17;32.05;;;17.52;;
4198;SDS011;2113;50.946;14.610;2023-03-01T12:57:56;29.77;;;18.90;;
4198;SDS011;2113;50.946;14.610;2023-03-01T13:00:37;30.27;;;18.33;;
4198;SDS011;2113;50.946;14.610;2023-03-01T13:03:18;36.22;;;19.27;;
4198;SDS011;2113;50.946;14.610;2023-03-01T13:05:56;35.17;;;19.63;;
4198;SDS011;2113;50.946;14.610;2023-03-01T13:08:34;34.17;;;18.65;;
4198;SDS011;2113;50.946;14.610;2023-03-01T13:11:11;42.80;;;20.00;;
4198;SDS011;2113;50.946;14.610;2023-03-01T13:13:45;28.33;;;15.93;;
4198;SDS011;2113;50.946;14.610;2023-03-01T13:16:39;29.67;;;16.27;;
4198;SDS011;2113;50.946;14.610;2023-03-01T13:19:10;27.98;;;15.82;;
4198;SDS011;2113;50.946;14.610;2023-03-01T13:21:42;27.58;;;14.85;;
4198;SDS011;2113;50.946;14.610;2023-03-01T13:24:24;28.35;;;16.33;;
4198;SDS011;2113;50.946;14.610;2023-03-01T13:27:09;29.58;;;17.13;;
4198;SDS011;2113;50.946;14.610;2023-03-01T13:29:56;31.77;;;17.02;;
4198;SDS011;2113;50.946;14.610;2023-03-01T13:32:32;27.65;;;14.85;;
4198;SDS011;2113;50.946;14.610;2023-03-01T13:41:07;30.02;;;16.05;;
4198;SDS011;2113;50.946;14.610;2023-03-01T13:43:37;30.20;;;16.45;;
4198;SDS011;2113;50.946;14.610;2023-03-01T13:46:10;26.90;;;16.98;;
4198;SDS011;2113;50.946;14.610;2023-03-01T13:48:47;30.30;;;19.00;;
4198;SDS011;2113;50.946;14.610;2023-03-01T13:51:20;28.27;;;17.08;;
4198;SDS011;2113;50.946;14.610;2023-03-01T13:53:51;28.08;;;15.60;;
4198;SDS011;2113;50.946;14.610;2023-03-01T13:56:23;30.52;;;16.25;;
4198;SDS011;2113;50.946;14.610;2023-03-01T13:58:58;28.90;;;17.10;;
4198;SDS011;2113;50.946;14.610;2023-03-01T14:01:30;28.42;;;15.70;;
4198;SDS011;2113;50.946;14.610;2023-03-01T14:04:03;27.05;;;16.27;;
4198;SDS011;2113;50.946;14.610;2023-03-01T14:06:46;27.52;;;16.35;;
4198;SDS011;2113;50.946;14.610;2023-03-01T14:09:15;28.95;;;17.27;;
4198;SDS011;2113;50.946;14.610;2023-03-01T14:12:00;31.58;;;16.00;;
4198;SDS011;2113;50.946;14.610;2023-03-01T14:14:43;31.08;;;17.15;;
4198;SDS011;2113;50.946;14.610;2023-03-01T14:17:31;27.85;;;14.70;;
4198;SDS011;2113;50.946;14.610;2023-03-01T14:20:21;26.05;;;15.23;;
4198;SDS011;2113;50.946;14.610;2023-03-01T14:22:52;27.05;;;15.13;;
4198;SDS011;2113;50.946;14.610;2023-03-01T14:25:23;25.33;;;15.60;;
4198;SDS011;2113;50.946;14.610;2023-03-01T14:27:55;26.50;;;15.70;;
4198;SDS011;2113;50.946;14.610;2023-03-01T14:30:33;26.02;;;14.43;;
4198;SDS011;2113;50.946;14.610;2023-03-01T14:33:06;29.38;;;17.30;;
4198;SDS011;2113;50.946;14.610;2023-03-01T14:35:53;31.95;;;16.33;;
4198;SDS011;2113;50.946;14.610;2023-03-01T14:38:30;35.42;;;15.48;;
4198;SDS011;2113;50.946;14.610;2023-03-01T14:41:02;26.13;;;13.25;;
4198;SDS011;2113;50.946;14.610;2023-03-01T14:43:33;24.35;;;14.27;;
4198;SDS011;2113;50.946;14.610;2023-03-01T14:46:03;17.35;;;10.63;;
4198;SDS011;2113;50.946;14.610;2023-03-01T14:48:32;21.38;;;11.32;;
4198;SDS011;2113;50.946;14.610;2023-03-01T14:51:01;23.33;;;14.65;;
4198;SDS011;2113;50.946;14.610;2023-03-01T14:53:33;21.35;;;11.75;;
4198;SDS011;2113;50.946;14.610;2023-03-01T14:56:16;25.65;;;14.23;;
4198;SDS011;2113;50.946;14.610;2023-03-01T14:58:45;25.40;;;12.95;;
4198;SDS011;2113;50.946;14.610;2023-03-01T15:01:15;22.17;;;12.95;;
4198;SDS011;2113;50.946;14.610;2023-03-01T15:03:46;21.90;;;12.75;;
4198;SDS011;2113;50.946;14.610;2023-03-01T15:06:18;31.00;;;18.00;;
4198;SDS011;2113;50.946;14.610;2023-03-01T15:08:49;27.67;;;15.40;;
4198;SDS011;2113;50.946;14.610;2023-03-01T15:11:20;29.80;;;17.33;;
4198;SDS011;2113;50.946;14.610;2023-03-01T15:13:52;25.20;;;14.18;;
4198;SDS011;2113;50.946;14.610;2023-03-01T15:16:21;29.15;;;15.15;;
4198;SDS011;2113;50.946;14.610;2023-03-01T15:18:52;26.05;;;15.60;;
4198;SDS011;2113;50.946;14.610;2023-03-01T15:21:26;25.02;;;14.40;;
4198;SDS011;2113;50.946;14.610;2023-03-01T15:23:59;20.27;;;12.43;;
4198;SDS011;2113;50.946;14.610;2023-03-01T15:26:32;25.63;;;13.85;;